Time;durP1;ratioP1;P1;durP2;ratioP2;P2;SDS_P1;SDS_P2;PMS_P1;PMS_P2;Temp;Humidity;BMP_temperature;BMP_pressure;BME280_temperature;BME280_humidity;BME280_pressure;Samples;Min_cycle;Max_cycle;Signal;HPM_P1;HPM_P2
2023/05/08 00:01:55;;;;;;;7.82;7.22;;;11.10;99.90;;;;;;5059172;28;20460;-58
2023/05/08 00:04:20;;;;;;;7.32;6.72;;;11.00;99.90;;;;;;5059481;28;20051;-59
2023/05/08 00:06:47;;;;;;;7.72;7.13;;;11.00;99.90;;;;;;5059186;28;20040;-58
2023/05/08 00:09:12;;;;;;;8.40;7.70;;;11.00;99.90;;;;;;5057840;28;20074;-59
2023/05/08 00:11:38;;;;;;;12.95;7.65;;;11.10;99.90;;;;;;5056790;28;20044;-59
2023/05/08 00:14:04;;;;;;;8.20;7.50;;;11.10;99.90;;;;;;5055496;28;20154;-59
2023/05/08 00:16:30;;;;;;;7.55;6.88;;;11.10;99.90;;;;;;5059193;28;20085;-59
2023/05/08 00:18:56;;;;;;;7.18;6.57;;;11.00;99.90;;;;;;5058136;28;20033;-58
2023/05/08 00:21:22;;;;;;;9.02;8.10;;;11.10;99.90;;;;;;5060722;28;20416;-58
2023/05/08 00:23:47;;;;;;;7.57;6.97;;;11.00;99.90;;;;;;5060692;28;20517;-59
2023/05/08 00:26:13;;;;;;;8.50;7.03;;;11.00;99.90;;;;;;5056934;28;20454;-58
2023/05/08 00:28:38;;;;;;;10.02;7.05;;;10.90;99.90;;;;;;5059935;28;20033;-58
2023/05/08 00:31:04;;;;;;;27.33;8.05;;;10.90;99.90;;;;;;5054306;28;20029;-58
2023/05/08 00:33:30;;;;;;;8.55;7.85;;;10.90;99.90;;;;;;5059315;28;20081;-58
2023/05/08 00:36:02;;;;;;;7.97;7.35;;;10.90;99.90;;;;;;5059400;28;20075;-59
2023/05/08 00:38:33;;;;;;;8.00;7.18;;;10.90;99.90;;;;;;5064049;28;20071;-58
2023/05/08 00:41:00;;;;;;;7.47;6.88;;;10.80;99.90;;;;;;5060894;28;20016;-59
2023/05/08 00:43:27;;;;;;;7.72;7.03;;;10.80;99.90;;;;;;5060098;28;20489;-58
2023/05/08 00:45:55;;;;;;;8.00;7.30;;;10.80;99.90;;;;;;5056964;28;20032;-58
2023/05/08 00:48:24;;;;;;;7.78;7.10;;;10.80;99.90;;;;;;5060947;28;20029;-59
2023/05/08 00:50:51;;;;;;;7.82;7.22;;;10.80;99.90;;;;;;5058222;28;20488;-59
2023/05/08 00:53:19;;;;;;;8.57;7.75;;;10.70;99.90;;;;;;5060298;28;20150;-57
2023/05/08 00:55:46;;;;;;;19.42;7.47;;;10.70;99.90;;;;;;5056815;28;20103;-58
2023/05/08 00:58:13;;;;;;;9.63;7.25;;;10.70;99.90;;;;;;5063033;28;20029;-57
2023/05/08 01:00:41;;;;;;;7.50;6.90;;;10.70;99.90;;;;;;5055920;28;20063;-58
2023/05/08 01:03:08;;;;;;;8.13;7.40;;;10.70;99.90;;;;;;5059107;28;20039;-59
2023/05/08 01:05:34;;;;;;;8.00;7.40;;;10.70;99.90;;;;;;5059043;28;20086;-58
2023/05/08 01:08:00;;;;;;;7.72;6.88;;;10.60;99.90;;;;;;5061782;28;20479;-58
2023/05/08 01:10:36;;;;;;;10.45;7.15;;;10.60;99.90;;;;;;5059374;28;20028;-59
2023/05/08 01:13:24;;;;;;;7.38;6.78;;;10.60;99.90;;;;;;5055608;28;20044;-58
2023/05/08 01:16:01;;;;;;;7.13;6.53;;;10.50;99.90;;;;;;5057722;28;20021;-58
2023/05/08 01:18:35;;;;;;;12.00;6.38;;;10.40;99.90;;;;;;5059460;28;20033;-59
2023/05/08 01:21:32;;;;;;;8.02;7.32;;;10.40;99.90;;;;;;5061484;28;20033;-58
2023/05/08 01:23:58;;;;;;;8.07;7.38;;;10.30;99.90;;;;;;5057315;28;20027;-58
2023/05/08 01:26:42;;;;;;;10.38;8.00;;;10.30;99.90;;;;;;5059622;28;20025;-58
2023/05/08 01:29:32;;;;;;;9.05;7.72;;;10.20;99.90;;;;;;5059178;28;20033;-63
2023/05/08 01:32:01;;;;;;;7.18;6.57;;;10.20;99.90;;;;;;5057770;28;20492;-59
2023/05/08 01:34:31;;;;;;;7.65;6.95;;;10.10;99.90;;;;;;5060633;28;20021;-59
2023/05/08 01:37:02;;;;;;;8.90;8.03;;;10.10;99.90;;;;;;5028374;28;20042;-58
2023/05/08 01:39:52;;;;;;;9.57;8.57;;;10.10;99.90;;;;;;5059651;28;20259;-58
2023/05/08 01:42:45;;;;;;;8.70;7.68;;;10.10;99.90;;;;;;5056939;28;20447;-58
2023/05/08 01:45:33;;;;;;;8.55;7.75;;;10.10;99.90;;;;;;5053873;28;20078;-58
2023/05/08 01:48:09;;;;;;;8.15;7.45;;;10.10;99.90;;;;;;5060372;28;20021;-59
2023/05/08 01:50:57;;;;;;;10.90;7.80;;;10.10;99.90;;;;;;5057521;28;20107;-57
2023/05/08 01:53:26;;;;;;;8.30;7.55;;;10.10;99.90;;;;;;5056128;28;20047;-58
2023/05/08 01:55:56;;;;;;;8.35;7.20;;;10.10;99.90;;;;;;5061248;28;20021;-60
2023/05/08 01:58:24;;;;;;;9.30;7.20;;;10.10;99.90;;;;;;5060701;28;20021;-58
2023/05/08 02:00:51;;;;;;;7.88;7.18;;;10.00;99.90;;;;;;5062533;28;20103;-59
2023/05/08 02:03:19;;;;;;;8.70;7.95;;;10.00;99.90;;;;;;5055788;28;20116;-58
2023/05/08 02:05:50;;;;;;;9.10;8.30;;;10.00;99.90;;;;;;5056696;28;20056;-58
2023/05/08 02:08:16;;;;;;;9.15;7.93;;;10.00;99.90;;;;;;5058258;28;20033;-59
2023/05/08 02:10:43;;;;;;;8.35;7.55;;;10.00;99.90;;;;;;5057928;28;20024;-58
2023/05/08 02:13:09;;;;;;;7.93;7.15;;;10.00;99.90;;;;;;5055812;28;20064;-58
2023/05/08 02:15:37;;;;;;;9.30;7.70;;;10.00;99.90;;;;;;5060215;28;20057;-59
2023/05/08 02:18:07;;;;;;;11.60;8.48;;;10.00;99.90;;;;;;5055599;28;20400;-58
2023/05/08 02:20:33;;;;;;;8.80;8.00;;;9.90;99.90;;;;;;5057044;28;20693;-58
2023/05/08 02:23:00;;;;;;;8.35;7.30;;;9.90;99.90;;;;;;5055929;28;20084;-58
2023/05/08 02:25:28;;;;;;;9.07;7.22;;;9.80;99.90;;;;;;5054803;28;20358;-58
2023/05/08 02:27:55;;;;;;;12.93;7.70;;;9.80;99.90;;;;;;5054263;28;20112;-59
2023/05/08 02:30:23;;;;;;;9.18;7.40;;;9.70;99.90;;;;;;5058437;28;20397;-59
2023/05/08 02:32:51;;;;;;;8.18;7.28;;;9.70;99.90;;;;;;5058536;28;20037;-58
2023/05/08 02:35:18;;;;;;;7.97;7.38;;;9.70;99.90;;;;;;5057129;28;20032;-58
2023/05/08 02:37:50;;;;;;;7.15;6.45;;;9.70;99.90;;;;;;5056812;28;20043;-59
2023/05/08 02:40:17;;;;;;;11.00;7.70;;;9.60;99.90;;;;;;5054811;28;20068;-57
2023/05/08 02:42:43;;;;;;;7.60;6.90;;;9.60;99.90;;;;;;5057383;28;20025;-58
2023/05/08 02:45:11;;;;;;;9.77;7.68;;;9.60;99.90;;;;;;5058298;28;20063;-58
2023/05/08 02:48:14;;;;;;;7.88;7.25;;;9.60;99.90;;;;;;5056865;28;20033;-58
2023/05/08 02:51:07;;;;;;;11.38;7.45;;;9.50;99.90;;;;;;5054624;28;20155;-58
2023/05/08 02:53:46;;;;;;;7.90;7.20;;;9.50;99.90;;;;;;5054140;28;20033;-59
2023/05/08 02:56:31;;;;;;;8.10;7.30;;;9.50;99.90;;;;;;5059685;28;20029;-58
2023/05/08 02:59:08;;;;;;;7.97;7.28;;;9.50;99.90;;;;;;5056083;28;20420;-58
2023/05/08 03:01:51;;;;;;;9.68;7.55;;;9.50;99.90;;;;;;5058113;28;20639;-58
2023/05/08 03:04:33;;;;;;;9.63;8.60;;;9.50;99.90;;;;;;5053312;28;20074;-58
2023/05/08 03:07:00;;;;;;;10.32;8.00;;;9.50;99.90;;;;;;5057044;28;20030;-57
2023/05/08 03:09:31;;;;;;;8.75;7.85;;;9.40;99.90;;;;;;5053121;28;20397;-58
2023/05/08 03:12:03;;;;;;;9.85;8.00;;;9.40;99.90;;;;;;5057043;28;20037;-59
2023/05/08 03:14:34;;;;;;;9.07;8.00;;;9.40;99.90;;;;;;5059202;28;20024;-59
2023/05/08 03:17:05;;;;;;;8.23;7.47;;;9.40;99.90;;;;;;5057183;28;20009;-59
2023/05/08 03:19:34;;;;;;;9.48;8.50;;;9.40;99.90;;;;;;5055467;28;20095;-58
2023/05/08 03:22:01;;;;;;;9.60;8.80;;;9.40;99.90;;;;;;5055588;28;20060;-58
2023/05/08 03:24:30;;;;;;;9.23;8.32;;;9.40;99.90;;;;;;5060675;28;20028;-58
2023/05/08 03:26:57;;;;;;;8.88;8.13;;;9.40;99.90;;;;;;5063356;28;20129;-58
2023/05/08 03:29:24;;;;;;;8.63;7.93;;;9.40;99.90;;;;;;5061572;28;20041;-59
2023/05/08 03:31:51;;;;;;;9.07;8.27;;;9.40;99.90;;;;;;5061827;28;20025;-57
2023/05/08 03:34:19;;;;;;;9.40;8.50;;;9.50;99.90;;;;;;5060766;28;20031;-58
2023/05/08 03:36:45;;;;;;;9.48;8.68;;;9.50;99.90;;;;;;5061239;28;20028;-57
2023/05/08 03:39:11;;;;;;;8.85;8.15;;;9.50;99.90;;;;;;5058846;28;20024;-58
2023/05/08 03:41:37;;;;;;;11.10;7.95;;;9.50;99.90;;;;;;5059931;28;20075;-58
2023/05/08 03:44:03;;;;;;;9.93;9.00;;;9.50;99.90;;;;;;5060835;28;20082;-58
2023/05/08 03:46:31;;;;;;;9.35;8.52;;;9.50;99.90;;;;;;5058186;28;20044;-58
2023/05/08 03:48:59;;;;;;;10.18;9.25;;;9.60;99.90;;;;;;5059399;28;20043;-59
2023/05/08 03:51:27;;;;;;;9.60;8.80;;;9.60;99.90;;;;;;5063052;28;20116;-58
2023/05/08 03:53:52;;;;;;;9.90;9.07;;;9.60;99.90;;;;;;5059997;28;20057;-59
2023/05/08 03:56:18;;;;;;;10.57;9.57;;;9.60;99.90;;;;;;5057041;28;20067;-58
2023/05/08 03:58:48;;;;;;;9.43;8.50;;;9.60;99.90;;;;;;5059344;28;20048;-58
2023/05/08 04:01:27;;;;;;;16.67;9.50;;;9.60;99.90;;;;;;5059912;28;20163;-58
2023/05/08 04:04:06;;;;;;;9.63;8.80;;;9.60;99.90;;;;;;5053916;28;20434;-58
2023/05/08 04:06:38;;;;;;;8.98;8.18;;;9.60;99.90;;;;;;5058708;28;20072;-59
2023/05/08 04:09:11;;;;;;;10.20;9.30;;;9.60;99.90;;;;;;5059665;28;20600;-58
2023/05/08 04:11:56;;;;;;;8.90;8.20;;;9.60;99.90;;;;;;5060206;28;20036;-58
2023/05/08 04:14:28;;;;;;;10.05;9.25;;;9.60;99.90;;;;;;5060180;28;20033;-59
2023/05/08 04:17:01;;;;;;;9.05;8.35;;;9.60;99.90;;;;;;5062225;28;20020;-58
2023/05/08 04:19:32;;;;;;;9.15;8.43;;;9.70;99.90;;;;;;5058213;28;21335;-59
2023/05/08 04:22:04;;;;;;;9.30;8.60;;;9.70;99.90;;;;;;5058588;28;20069;-58
2023/05/08 04:24:33;;;;;;;9.88;9.07;;;9.70;99.90;;;;;;5058187;28;20036;-58
2023/05/08 04:27:01;;;;;;;9.52;8.43;;;9.70;99.90;;;;;;5055122;28;20663;-58
2023/05/08 04:29:27;;;;;;;9.55;8.65;;;9.80;99.90;;;;;;5060709;28;20066;-58
2023/05/08 04:31:54;;;;;;;9.15;8.35;;;9.80;99.90;;;;;;5056693;28;20480;-58
2023/05/08 04:34:21;;;;;;;10.13;9.18;;;9.80;99.90;;;;;;5066744;28;20017;-58
2023/05/08 04:36:47;;;;;;;9.95;9.05;;;9.80;99.90;;;;;;5055826;28;20033;-59
2023/05/08 04:39:13;;;;;;;12.02;9.35;;;9.80;99.90;;;;;;5057041;28;20022;-58
2023/05/08 04:41:39;;;;;;;11.60;8.77;;;9.80;99.90;;;;;;5056930;28;20546;-58
2023/05/08 04:44:04;;;;;;;9.55;8.75;;;9.80;99.90;;;;;;5060270;28;20082;-58
2023/05/08 04:46:30;;;;;;;9.52;8.73;;;9.80;99.90;;;;;;5060117;28;20664;-59
2023/05/08 04:48:56;;;;;;;10.10;8.88;;;9.80;99.90;;;;;;5058382;28;20029;-64
2023/05/08 04:51:21;;;;;;;9.82;9.02;;;9.90;99.90;;;;;;5055383;28;20033;-58
2023/05/08 04:53:47;;;;;;;11.15;10.30;;;9.90;99.90;;;;;;5060976;28;20025;-59
2023/05/08 04:56:12;;;;;;;11.95;8.85;;;10.00;99.90;;;;;;5058356;28;20484;-60
2023/05/08 04:58:38;;;;;;;10.45;9.50;;;10.00;99.90;;;;;;5059767;28;20021;-58
2023/05/08 05:01:04;;;;;;;10.70;9.27;;;10.10;99.90;;;;;;5056084;28;20060;-58
2023/05/08 05:03:30;;;;;;;10.80;9.55;;;10.10;99.90;;;;;;5057856;28;20058;-59
2023/05/08 05:06:02;;;;;;;12.13;9.40;;;10.20;99.90;;;;;;5057956;28;20029;-59
2023/05/08 05:08:27;;;;;;;9.68;8.80;;;10.30;99.90;;;;;;5059632;28;20025;-58
2023/05/08 05:10:53;;;;;;;14.50;9.98;;;10.40;99.90;;;;;;5060333;28;20075;-59
2023/05/08 05:13:19;;;;;;;12.55;9.82;;;10.40;99.90;;;;;;5058147;28;20032;-58
2023/05/08 05:15:45;;;;;;;9.30;8.50;;;10.50;99.90;;;;;;5057270;28;20037;-58
2023/05/08 05:18:10;;;;;;;10.10;9.10;;;10.60;99.90;;;;;;5057639;28;20043;-59
2023/05/08 05:20:36;;;;;;;10.40;9.45;;;10.60;99.90;;;;;;5059102;28;20495;-58
2023/05/08 05:23:02;;;;;;;8.38;7.57;;;10.70;99.90;;;;;;5059055;28;20762;-57
2023/05/08 05:25:28;;;;;;;10.05;9.15;;;10.80;99.90;;;;;;5056134;28;20033;-59
2023/05/08 05:27:54;;;;;;;9.82;9.02;;;10.90;99.90;;;;;;5056839;28;20063;-58
2023/05/08 05:30:19;;;;;;;10.13;9.32;;;11.10;99.90;;;;;;5056608;28;20052;-59
2023/05/08 05:32:45;;;;;;;9.05;8.30;;;11.20;99.90;;;;;;5060755;28;20036;-58
2023/05/08 05:35:11;;;;;;;9.55;8.68;;;11.30;99.90;;;;;;5057736;28;20040;-58
2023/05/08 05:37:36;;;;;;;9.10;8.20;;;11.50;99.90;;;;;;5060031;28;20024;-58
2023/05/08 05:40:03;;;;;;;9.25;8.55;;;11.50;99.90;;;;;;5059147;28;20029;-59
2023/05/08 05:42:28;;;;;;;10.05;9.15;;;11.60;99.90;;;;;;5060629;28;20028;-57
2023/05/08 05:44:55;;;;;;;8.52;7.75;;;11.80;99.90;;;;;;5054224;28;20156;-58
2023/05/08 05:47:21;;;;;;;8.82;8.02;;;11.90;99.90;;;;;;5058238;28;20050;-59
2023/05/08 05:49:47;;;;;;;9.80;9.02;;;12.00;99.90;;;;;;5057938;28;20025;-59
2023/05/08 05:52:13;;;;;;;9.48;8.70;;;12.00;99.90;;;;;;5060206;28;20033;-59
2023/05/08 05:54:40;;;;;;;9.10;8.40;;;12.00;99.90;;;;;;5056833;28;20029;-58
2023/05/08 05:57:06;;;;;;;8.63;7.93;;;12.00;99.90;;;;;;5056228;28;20098;-58
2023/05/08 05:59:32;;;;;;;9.88;9.07;;;12.10;99.90;;;;;;5059939;28;20029;-58
2023/05/08 06:01:58;;;;;;;9.38;8.40;;;12.20;99.90;;;;;;5064540;28;20028;-58
2023/05/08 06:04:23;;;;;;;8.82;8.02;;;12.20;99.90;;;;;;5058767;28;20024;-58
2023/05/08 06:06:49;;;;;;;10.32;8.40;;;12.20;99.90;;;;;;5060184;28;20142;-59
2023/05/08 06:09:14;;;;;;;8.35;7.65;;;12.20;99.90;;;;;;5059249;28;20064;-59
2023/05/08 06:11:41;;;;;;;8.52;7.82;;;12.40;99.90;;;;;;5059535;28;20483;-59
2023/05/08 06:14:06;;;;;;;9.07;8.27;;;12.50;99.90;;;;;;5059003;28;20032;-58
2023/05/08 06:16:34;;;;;;;9.10;7.70;;;12.40;99.90;;;;;;5060120;28;20393;-58
2023/05/08 06:18:59;;;;;;;8.50;7.72;;;12.40;99.90;;;;;;5058935;28;20025;-58
2023/05/08 06:21:27;;;;;;;12.80;8.27;;;12.30;99.90;;;;;;5061365;28;20086;-58
2023/05/08 06:23:53;;;;;;;10.15;8.63;;;12.30;99.90;;;;;;5056995;28;20032;-58
2023/05/08 06:26:18;;;;;;;9.25;8.55;;;12.30;99.90;;;;;;5060049;28;20029;-59
2023/05/08 06:28:44;;;;;;;9.35;8.55;;;12.30;99.90;;;;;;5059718;28;20039;-59
2023/05/08 06:31:09;;;;;;;9.20;8.48;;;12.20;99.90;;;;;;5060809;28;20028;-58
2023/05/08 06:33:36;;;;;;;11.82;9.00;;;12.30;99.90;;;;;;5058300;28;20102;-59
2023/05/08 06:36:05;;;;;;;10.65;7.85;;;12.30;99.90;;;;;;5055629;28;20082;-59
2023/05/08 06:38:30;;;;;;;9.57;8.68;;;12.40;99.90;;;;;;5055313;28;20596;-59
2023/05/08 06:40:56;;;;;;;9.20;8.50;;;12.40;99.90;;;;;;5058104;28;20151;-58
2023/05/08 06:43:21;;;;;;;9.23;8.43;;;12.50;99.90;;;;;;5054769;28;20020;-59
2023/05/08 06:45:47;;;;;;;9.80;8.85;;;12.50;99.90;;;;;;5058577;28;20025;-57
2023/05/08 06:48:13;;;;;;;9.85;8.88;;;12.60;99.90;;;;;;5054198;28;20403;-59
2023/05/08 06:50:39;;;;;;;9.88;8.90;;;12.60;99.90;;;;;;5054300;28;20037;-59
2023/05/08 06:53:05;;;;;;;10.25;8.52;;;12.70;99.90;;;;;;5056449;28;20432;-59
2023/05/08 06:55:32;;;;;;;8.30;7.60;;;12.80;99.90;;;;;;5056125;28;20027;-56
2023/05/08 06:57:57;;;;;;;10.20;8.90;;;12.90;99.90;;;;;;5057026;28;20021;-58
2023/05/08 07:00:23;;;;;;;9.70;8.95;;;12.90;99.90;;;;;;5056316;28;20040;-58
2023/05/08 07:02:49;;;;;;;10.65;8.60;;;13.00;99.90;;;;;;5059376;28;20519;-59
2023/05/08 07:05:15;;;;;;;10.40;9.40;;;13.10;99.90;;;;;;5054832;28;20036;-60
2023/05/08 07:07:41;;;;;;;9.40;8.60;;;13.10;99.90;;;;;;5057012;28;20037;-59
2023/05/08 07:10:07;;;;;;;9.48;8.48;;;13.20;99.90;;;;;;5058962;28;20044;-58
2023/05/08 07:12:33;;;;;;;10.88;8.70;;;13.20;99.90;;;;;;5058447;28;20033;-59
2023/05/08 07:14:59;;;;;;;9.27;8.27;;;13.30;99.90;;;;;;5054658;28;20039;-58
2023/05/08 07:17:25;;;;;;;9.80;9.07;;;13.40;99.90;;;;;;5058190;28;20579;-59
2023/05/08 07:19:51;;;;;;;9.27;8.57;;;13.40;99.90;;;;;;5057489;28;20032;-58
2023/05/08 07:22:17;;;;;;;9.82;9.13;;;13.50;99.90;;;;;;5055010;28;20021;-58
2023/05/08 07:24:43;;;;;;;9.32;8.50;;;13.60;99.90;;;;;;5055996;28;20044;-59
2023/05/08 07:27:09;;;;;;;9.63;8.75;;;13.70;99.90;;;;;;5054456;28;20072;-59
2023/05/08 07:29:34;;;;;;;9.95;8.63;;;13.70;99.90;;;;;;5056457;28;20086;-58
2023/05/08 07:32:00;;;;;;;9.23;8.52;;;13.70;99.90;;;;;;5054192;28;20091;-58
2023/05/08 07:34:26;;;;;;;9.43;8.73;;;13.60;99.90;;;;;;5059581;28;20071;-59
2023/05/08 07:36:52;;;;;;;10.32;9.52;;;13.80;99.90;;;;;;5056309;28;20451;-60
2023/05/08 07:39:18;;;;;;;9.45;8.70;;;14.00;99.90;;;;;;5059640;28;20035;-59
2023/05/08 07:41:44;;;;;;;8.82;8.02;;;14.00;99.90;;;;;;5057792;28;20505;-59
2023/05/08 07:44:10;;;;;;;9.43;8.63;;;14.10;99.90;;;;;;5055997;28;20036;-58
2023/05/08 07:46:36;;;;;;;9.27;8.57;;;14.30;99.90;;;;;;5057915;28;20035;-58
2023/05/08 07:49:01;;;;;;;9.88;8.93;;;14.40;99.90;;;;;;5057076;28;20033;-59
2023/05/08 07:51:27;;;;;;;8.90;8.10;;;14.50;99.90;;;;;;5059080;28;20065;-58
2023/05/08 07:53:53;;;;;;;9.02;8.23;;;14.60;99.90;;;;;;5056554;28;20070;-60
2023/05/08 07:56:21;;;;;;;10.77;9.77;;;14.70;99.90;;;;;;5056325;28;20076;-59
2023/05/08 07:58:47;;;;;;;9.40;8.63;;;14.70;99.90;;;;;;5060521;28;20020;-59
2023/05/08 08:01:12;;;;;;;9.32;8.57;;;14.80;99.90;;;;;;5056593;28;20033;-59
2023/05/08 08:03:38;;;;;;;9.80;9.07;;;14.90;99.90;;;;;;5055700;28;20124;-59
2023/05/08 08:06:04;;;;;;;10.00;9.07;;;15.10;99.90;;;;;;5053566;28;20052;-58
2023/05/08 08:08:29;;;;;;;10.68;9.77;;;15.20;99.90;;;;;;5057090;28;20039;-60
2023/05/08 08:10:55;;;;;;;10.02;9.23;;;15.20;99.90;;;;;;5058985;28;20052;-60
2023/05/08 08:13:21;;;;;;;9.63;8.73;;;15.30;99.90;;;;;;5057519;28;20044;-59
2023/05/08 08:15:46;;;;;;;9.60;8.77;;;15.40;99.90;;;;;;5061089;28;20031;-59
2023/05/08 08:18:12;;;;;;;10.10;9.10;;;15.50;99.90;;;;;;5061064;28;20037;-59
2023/05/08 08:20:38;;;;;;;9.80;8.95;;;15.60;99.90;;;;;;5062188;28;20033;-59
2023/05/08 08:23:04;;;;;;;9.80;9.00;;;15.60;99.90;;;;;;5059085;28;20397;-59
2023/05/08 08:25:30;;;;;;;8.98;8.27;;;15.50;99.90;;;;;;5058796;28;20023;-59
2023/05/08 08:27:57;;;;;;;10.45;9.65;;;15.50;99.90;;;;;;5057660;28;20036;-59
2023/05/08 08:30:22;;;;;;;13.10;10.48;;;15.40;99.90;;;;;;5061302;28;20041;-59
2023/05/08 08:32:48;;;;;;;10.18;8.93;;;15.50;99.90;;;;;;5058190;28;20421;-59
2023/05/08 08:35:14;;;;;;;10.68;9.68;;;15.50;99.90;;;;;;5057829;28;20163;-58
2023/05/08 08:37:40;;;;;;;9.77;8.88;;;15.50;99.90;;;;;;5060728;28;20071;-59
2023/05/08 08:40:06;;;;;;;10.63;9.73;;;15.60;99.90;;;;;;5060021;28;20033;-58
2023/05/08 08:42:32;;;;;;;9.23;8.32;;;15.70;99.90;;;;;;5059867;28;20048;-57
2023/05/08 08:44:57;;;;;;;9.80;8.70;;;15.80;99.90;;;;;;5057509;28;20806;-58
2023/05/08 08:47:33;;;;;;;9.05;8.35;;;15.90;99.90;;;;;;5057174;28;20029;-57
2023/05/08 08:50:02;;;;;;;8.63;7.93;;;16.10;99.90;;;;;;5056644;28;20024;-57
2023/05/08 08:52:39;;;;;;;8.70;8.00;;;16.10;99.90;;;;;;5056890;28;20036;-57
2023/05/08 08:55:09;;;;;;;9.27;8.40;;;16.40;99.90;;;;;;5055420;28;20390;-58
2023/05/08 08:57:38;;;;;;;8.88;7.95;;;16.50;99.90;;;;;;5059904;28;20455;-57
2023/05/08 09:00:07;;;;;;;8.05;7.32;;;16.70;99.90;;;;;;5058860;28;20039;-57
2023/05/08 09:02:34;;;;;;;9.00;8.30;;;16.90;99.90;;;;;;5057469;28;20037;-58
2023/05/08 09:05:00;;;;;;;8.02;7.32;;;17.30;99.90;;;;;;5058589;28;20496;-58
2023/05/08 09:07:26;;;;;;;8.82;7.38;;;17.80;99.90;;;;;;5059531;28;20515;-58
2023/05/08 09:09:52;;;;;;;8.57;7.75;;;18.50;99.90;;;;;;5057346;28;20444;-58
2023/05/08 09:12:18;;;;;;;7.72;7.13;;;19.10;99.10;;;;;;5057007;28;20044;-59
2023/05/08 09:14:43;;;;;;;7.85;7.22;;;19.50;93.00;;;;;;5060944;28;20399;-58
2023/05/08 09:17:09;;;;;;;6.88;6.38;;;20.30;90.60;;;;;;5060502;28;20033;-59
2023/05/08 09:19:35;;;;;;;10.40;6.60;;;21.30;85.90;;;;;;5059320;28;20036;-58
2023/05/08 09:22:03;;;;;;;6.82;6.32;;;21.60;80.70;;;;;;5055539;28;20115;-58
2023/05/08 09:24:53;;;;;;;6.00;5.60;;;22.10;79.10;;;;;;5058545;28;20507;-59
2023/05/08 09:27:26;;;;;;;8.60;7.20;;;22.80;74.70;;;;;;5057260;28;20039;-58
2023/05/08 09:30:06;;;;;;;8.77;6.75;;;22.20;75.60;;;;;;5057438;28;20043;-58
2023/05/08 09:32:33;;;;;;;6.95;6.35;;;21.70;77.40;;;;;;5058034;28;20044;-58
2023/05/08 09:34:59;;;;;;;7.60;6.70;;;21.40;76.40;;;;;;5059870;28;20036;-58
2023/05/08 09:37:26;;;;;;;8.02;7.22;;;21.10;80.10;;;;;;5056131;28;20036;-59
2023/05/08 09:39:52;;;;;;;6.72;6.10;;;20.80;79.80;;;;;;5056227;28;20039;-59
2023/05/08 09:42:18;;;;;;;7.97;6.40;;;20.70;81.60;;;;;;5062837;28;20037;-59
2023/05/08 09:44:52;;;;;;;7.57;6.88;;;20.70;82.10;;;;;;5056731;28;20532;-59
2023/05/08 09:47:19;;;;;;;8.20;7.57;;;20.50;82.70;;;;;;5058252;28;20029;-58
2023/05/08 09:50:08;;;;;;;7.72;7.03;;;20.40;80.10;;;;;;5058222;28;20024;-58
2023/05/08 09:52:36;;;;;;;7.13;6.63;;;20.70;77.80;;;;;;5056613;28;20055;-59
2023/05/08 09:55:09;;;;;;;6.68;6.07;;;20.80;83.80;;;;;;5057973;28;20082;-59
2023/05/08 09:57:38;;;;;;;7.63;6.90;;;20.80;82.60;;;;;;5057736;28;20028;-59
2023/05/08 10:00:08;;;;;;;7.45;6.80;;;20.60;81.40;;;;;;5055427;28;20101;-60
2023/05/08 10:02:35;;;;;;;8.00;7.40;;;20.40;83.80;;;;;;5056057;28;20075;-59
2023/05/08 10:05:03;;;;;;;7.50;6.93;;;20.40;79.80;;;;;;5059061;28;20024;-59
2023/05/08 10:07:37;;;;;;;7.22;6.72;;;20.20;84.10;;;;;;5059670;28;20021;-59
2023/05/08 10:10:04;;;;;;;7.38;6.72;;;20.00;84.80;;;;;;5059065;28;20520;-59
2023/05/08 10:12:31;;;;;;;7.35;6.75;;;19.70;81.50;;;;;;5058371;28;20112;-58
2023/05/08 10:15:00;;;;;;;9.18;6.70;;;19.80;86.70;;;;;;5056821;28;20029;-58
2023/05/08 10:17:50;;;;;;;8.00;7.38;;;19.60;87.00;;;;;;5059527;28;20057;-58
2023/05/08 10:20:19;;;;;;;7.35;6.72;;;19.70;85.20;;;;;;5056029;28;20033;-58
2023/05/08 10:22:47;;;;;;;7.68;7.07;;;19.90;83.10;;;;;;5059887;28;20021;-58
2023/05/08 10:25:16;;;;;;;10.07;7.18;;;20.10;82.40;;;;;;5057451;28;20032;-59
2023/05/08 10:27:51;;;;;;;7.75;6.57;;;20.20;87.20;;;;;;5058260;28;20102;-59
2023/05/08 10:30:22;;;;;;;6.78;6.28;;;20.10;84.20;;;;;;5056505;28;20025;-58
2023/05/08 10:32:53;;;;;;;7.00;6.40;;;20.20;87.10;;;;;;5060888;28;20142;-59
2023/05/08 10:35:20;;;;;;;7.45;6.75;;;20.20;87.50;;;;;;5057632;28;20037;-58
2023/05/08 10:37:47;;;;;;;6.78;6.28;;;20.00;86.50;;;;;;5057812;28;20408;-59
2023/05/08 10:40:17;;;;;;;7.75;6.95;;;19.80;85.50;;;;;;5056001;28;20031;-58
2023/05/08 10:42:44;;;;;;;6.95;6.25;;;19.70;88.40;;;;;;5059040;28;20031;-58
2023/05/08 10:45:11;;;;;;;7.00;6.50;;;19.80;87.40;;;;;;5036118;28;20072;-58
2023/05/08 10:48:03;;;;;;;8.40;6.68;;;19.80;87.50;;;;;;5056366;28;20029;-58
2023/05/08 10:51:09;;;;;;;7.28;6.78;;;20.00;88.40;;;;;;5048728;28;20039;-58
2023/05/08 10:53:47;;;;;;;9.90;6.10;;;20.10;90.40;;;;;;5057406;28;20148;-58
2023/05/08 10:56:12;;;;;;;7.55;6.95;;;20.20;85.80;;;;;;5053224;28;20032;-60
2023/05/08 10:58:39;;;;;;;6.75;6.25;;;20.40;82.20;;;;;;5054861;28;20025;-59
2023/05/08 11:01:07;;;;;;;7.40;6.68;;;20.60;84.60;;;;;;5056375;28;20029;-59
2023/05/08 11:03:39;;;;;;;6.35;5.50;;;20.50;79.10;;;;;;5054673;28;20033;-58
2023/05/08 11:06:05;;;;;;;6.15;5.72;;;20.40;80.80;;;;;;5057426;28;20512;-58
2023/05/08 11:08:31;;;;;;;7.10;6.60;;;20.30;84.80;;;;;;5055834;28;20052;-58
2023/05/08 11:11:03;;;;;;;8.23;6.20;;;20.30;87.50;;;;;;5056646;28;20372;-59
2023/05/08 11:13:55;;;;;;;8.80;6.10;;;20.30;84.90;;;;;;5056695;28;20397;-59
2023/05/08 11:17:00;;;;;;;11.30;6.20;;;20.00;83.60;;;;;;5049927;28;20036;-58
2023/05/08 11:19:27;;;;;;;6.65;6.05;;;19.80;85.10;;;;;;5055293;28;20086;-58
2023/05/08 11:22:18;;;;;;;6.93;6.10;;;19.80;84.60;;;;;;5051273;28;20032;-59
2023/05/08 11:24:50;;;;;;;7.07;6.45;;;19.90;90.00;;;;;;5055655;28;20610;-59
2023/05/08 11:27:16;;;;;;;8.70;6.25;;;20.00;87.10;;;;;;5055171;28;20408;-58
2023/05/08 11:29:43;;;;;;;8.05;6.55;;;19.90;85.00;;;;;;5055475;28;20032;-58
2023/05/08 11:32:09;;;;;;;7.20;6.53;;;19.80;89.10;;;;;;5055803;28;20255;-59
2023/05/08 11:34:44;;;;;;;7.28;6.47;;;19.80;86.60;;;;;;5056796;28;20032;-58
2023/05/08 11:37:22;;;;;;;7.65;6.38;;;19.80;88.60;;;;;;5053522;28;20021;-60
2023/05/08 11:39:49;;;;;;;6.70;6.18;;;19.90;86.50;;;;;;5053456;28;20899;-58
2023/05/08 11:42:24;;;;;;;7.25;6.25;;;19.90;87.60;;;;;;5058465;28;20076;-59
2023/05/08 11:45:07;;;;;;;6.82;6.30;;;20.00;88.10;;;;;;5062357;28;20403;-58
2023/05/08 11:47:42;;;;;;;6.38;5.88;;;20.00;82.00;;;;;;5062365;28;20036;-57
2023/05/08 11:50:09;;;;;;;6.65;5.97;;;20.10;82.40;;;;;;5058776;28;20041;-59
2023/05/08 11:52:35;;;;;;;6.68;6.18;;;19.90;86.80;;;;;;5060420;28;20028;-59
2023/05/08 11:55:03;;;;;;;7.28;6.68;;;19.70;86.60;;;;;;5059126;28;20033;-59
2023/05/08 11:57:31;;;;;;;7.35;6.53;;;19.60;88.00;;;;;;5057606;28;20020;-59
2023/05/08 11:59:56;;;;;;;6.35;5.75;;;19.60;86.00;;;;;;5062370;28;20174;-60
2023/05/08 12:02:42;;;;;;;19.33;7.60;;;19.50;88.00;;;;;;5061087;28;20441;-58
2023/05/08 12:05:09;;;;;;;6.38;5.88;;;19.60;86.90;;;;;;5061951;28;20120;-57
2023/05/08 12:07:47;;;;;;;5.80;5.32;;;19.80;85.60;;;;;;5059428;28;20021;-59
2023/05/08 12:10:13;;;;;;;6.35;5.75;;;19.70;87.80;;;;;;5059247;28;20035;-58
2023/05/08 12:12:40;;;;;;;6.65;5.68;;;19.60;85.50;;;;;;5060054;28;20582;-58
2023/05/08 12:15:10;;;;;;;6.20;5.68;;;19.60;91.20;;;;;;5059507;28;20813;-59
2023/05/08 12:17:36;;;;;;;6.30;5.80;;;19.70;85.70;;;;;;5058672;28;20114;-58
2023/05/08 12:20:11;;;;;;;6.03;5.60;;;19.80;80.30;;;;;;5058456;28;20025;-58
2023/05/08 12:22:38;;;;;;;9.27;5.93;;;20.20;85.30;;;;;;5058395;28;20023;-59
2023/05/08 12:25:05;;;;;;;5.72;5.32;;;20.50;83.00;;;;;;5059668;28;20037;-59
2023/05/08 12:27:31;;;;;;;5.00;4.60;;;20.70;79.90;;;;;;5058549;28;20059;-59
2023/05/08 12:29:57;;;;;;;9.85;6.28;;;20.90;79.30;;;;;;5061656;28;20635;-58
2023/05/08 12:32:23;;;;;;;16.00;6.55;;;20.70;83.30;;;;;;5061798;28;20071;-59
2023/05/08 12:34:48;;;;;;;6.53;6.05;;;20.40;83.50;;;;;;5059750;28;20115;-58
2023/05/08 12:37:26;;;;;;;6.13;5.63;;;20.20;80.60;;;;;;5058042;28;20032;-58
2023/05/08 12:39:52;;;;;;;6.30;5.90;;;20.00;87.40;;;;;;5058877;28;20021;-60
2023/05/08 12:42:17;;;;;;;12.80;6.47;;;19.90;83.00;;;;;;5059522;28;20525;-58
2023/05/08 12:44:50;;;;;;;6.38;5.40;;;19.90;90.40;;;;;;5062145;28;20036;-59
2023/05/08 12:47:20;;;;;;;6.80;6.20;;;19.80;88.90;;;;;;5061155;28;20064;-59
2023/05/08 12:49:48;;;;;;;6.82;6.22;;;19.90;83.90;;;;;;5059683;28;20029;-58
2023/05/08 12:52:14;;;;;;;10.82;6.32;;;19.90;80.70;;;;;;5056292;28;20040;-58
2023/05/08 12:54:47;;;;;;;6.90;6.22;;;20.00;90.40;;;;;;5060626;28;20099;-58
2023/05/08 12:57:14;;;;;;;6.85;5.97;;;20.00;87.90;;;;;;5060229;28;20056;-58